Time;durP1;ratioP1;P1;durP2;ratioP2;P2;SDS_P1;SDS_P2;PMS_P1;PMS_P2;Temp;Humidity;BMP_temperature;BMP_pressure;BME280_temperature;BME280_humidity;BME280_pressure;Samples;Min_cycle;Max_cycle;Signal;HPM_P1;HPM_P2
2021/10/29 00:00:53;;;;;;;11.05;6.88;;;14.00;77.40;;;;;;5040183;28;20028;-65
2021/10/29 00:03:19;;;;;;;15.07;8.35;;;14.10;77.40;;;;;;5049760;28;20036;-65
2021/10/29 00:05:45;;;;;;;15.75;7.95;;;14.10;77.20;;;;;;5047555;28;20081;-65
2021/10/29 00:08:11;;;;;;;17.88;8.95;;;14.10;77.10;;;;;;5051008;28;20041;-65
2021/10/29 00:10:37;;;;;;;12.55;7.55;;;14.10;76.90;;;;;;5050884;28;20020;-65
2021/10/29 00:13:04;;;;;;;15.23;8.38;;;14.10;76.90;;;;;;5048357;28;20392;-65
2021/10/29 00:15:30;;;;;;;15.85;7.80;;;14.10;76.80;;;;;;5052733;28;20021;-66
2021/10/29 00:17:55;;;;;;;12.90;6.10;;;14.10;76.70;;;;;;5052156;28;20037;-65
2021/10/29 00:20:22;;;;;;;13.75;7.55;;;14.20;76.60;;;;;;5049508;28;20036;-65
2021/10/29 00:22:48;;;;;;;13.70;7.40;;;14.20;76.50;;;;;;5036548;28;20036;-65
2021/10/29 00:25:14;;;;;;;11.75;7.63;;;14.20;76.50;;;;;;5050658;28;20025;-65
2021/10/29 00:27:41;;;;;;;12.13;7.70;;;14.20;76.40;;;;;;5049940;28;20476;-65
2021/10/29 00:30:07;;;;;;;16.90;7.55;;;14.20;76.30;;;;;;5051497;28;20029;-65
2021/10/29 00:35:01;;;;;;;9.20;6.15;;;14.20;76.20;;;;;;4302367;22;20138;-65
2021/10/29 00:37:27;;;;;;;12.90;6.53;;;14.30;76.20;;;;;;5013732;28;20022;-65
2021/10/29 00:39:53;;;;;;;11.02;7.05;;;14.30;76.00;;;;;;5009256;28;20404;-65
2021/10/29 00:42:18;;;;;;;11.75;6.03;;;14.30;75.80;;;;;;5007241;28;20499;-65
2021/10/29 00:44:44;;;;;;;9.23;5.85;;;14.40;75.70;;;;;;5009351;28;20033;-65
2021/10/29 00:47:10;;;;;;;9.02;6.10;;;14.40;75.50;;;;;;5001195;28;20046;-65
2021/10/29 00:49:36;;;;;;;12.27;6.57;;;14.40;75.40;;;;;;5005654;28;20026;-65
2021/10/29 00:52:02;;;;;;;13.65;6.63;;;14.40;75.30;;;;;;5007454;28;20026;-65
2021/10/29 00:54:28;;;;;;;13.88;6.90;;;14.40;75.10;;;;;;5009548;28;20144;-65
2021/10/29 00:56:54;;;;;;;11.48;6.20;;;14.40;74.90;;;;;;4998031;28;20105;-65
2021/10/29 00:59:20;;;;;;;8.48;5.30;;;14.50;74.80;;;;;;5004517;28;20025;-65
2021/10/29 01:01:49;;;;;;;11.98;6.72;;;14.50;74.70;;;;;;5006839;28;20034;-65
2021/10/29 01:04:15;;;;;;;9.68;5.63;;;14.50;74.50;;;;;;5002808;28;20056;-65
2021/10/29 01:06:42;;;;;;;11.23;6.20;;;14.50;74.40;;;;;;5010462;28;20115;-65
2021/10/29 01:09:08;;;;;;;11.68;6.85;;;14.60;74.20;;;;;;5012277;28;20026;-65
2021/10/29 01:11:34;;;;;;;12.93;6.47;;;14.60;74.10;;;;;;4999366;28;20122;-65
2021/10/29 01:14:00;;;;;;;11.77;6.40;;;14.60;74.00;;;;;;4999840;28;20496;-65
2021/10/29 01:16:26;;;;;;;8.13;4.78;;;14.60;73.80;;;;;;5005724;28;20109;-65
2021/10/29 01:18:52;;;;;;;13.27;7.03;;;14.60;73.90;;;;;;5002856;28;20033;-65
2021/10/29 01:21:18;;;;;;;10.05;5.90;;;14.60;73.80;;;;;;5007547;28;20033;-65
2021/10/29 01:23:44;;;;;;;9.82;6.32;;;14.70;73.70;;;;;;5005724;28;20028;-65
2021/10/29 01:26:16;;;;;;;12.23;4.97;;;14.70;73.60;;;;;;5007695;28;20101;-65
2021/10/29 01:28:42;;;;;;;7.05;4.75;;;14.70;73.50;;;;;;5003654;28;20054;-65
2021/10/29 01:31:09;;;;;;;9.05;5.47;;;14.70;73.50;;;;;;5005539;28;20105;-66
2021/10/29 01:33:35;;;;;;;9.80;5.55;;;14.70;73.40;;;;;;5010157;28;20084;-65
2021/10/29 01:36:01;;;;;;;7.68;4.38;;;14.70;73.50;;;;;;5008449;28;20018;-65
2021/10/29 01:38:32;;;;;;;7.65;4.68;;;14.70;73.30;;;;;;5002702;28;20037;-65
2021/10/29 01:40:59;;;;;;;13.02;5.38;;;14.80;73.30;;;;;;5008613;28;20125;-66
2021/10/29 01:43:25;;;;;;;11.10;5.47;;;14.80;73.40;;;;;;5007707;28;20026;-65
2021/10/29 01:45:51;;;;;;;10.43;6.10;;;14.80;73.40;;;;;;5001339;28;20030;-66
2021/10/29 01:48:17;;;;;;;8.93;5.80;;;14.80;73.50;;;;;;5007972;28;20049;-65
2021/10/29 01:50:42;;;;;;;10.73;6.20;;;14.80;73.40;;;;;;5008708;28;20033;-65
2021/10/29 01:53:08;;;;;;;11.57;5.82;;;14.80;73.50;;;;;;5004303;28;20083;-65
2021/10/29 01:55:34;;;;;;;10.27;4.78;;;14.80;73.50;;;;;;5009449;28;20062;-65
2021/10/29 01:58:00;;;;;;;9.98;4.22;;;14.80;73.70;;;;;;5006609;28;20085;-65
2021/10/29 02:00:25;;;;;;;15.18;6.70;;;14.80;73.60;;;;;;5008841;28;20029;-65
2021/10/29 02:02:51;;;;;;;9.93;5.78;;;14.80;73.60;;;;;;5011063;28;20096;-66
2021/10/29 02:05:17;;;;;;;13.20;6.78;;;14.80;73.70;;;;;;5000128;28;20037;-65
2021/10/29 02:07:43;;;;;;;13.95;6.03;;;14.80;73.50;;;;;;4998348;28;20068;-65
2021/10/29 02:10:09;;;;;;;11.63;6.07;;;14.90;73.70;;;;;;5009545;28;20615;-66
2021/10/29 02:12:35;;;;;;;8.35;4.53;;;14.90;73.60;;;;;;5006078;28;20428;-65
2021/10/29 02:15:03;;;;;;;8.27;4.97;;;14.90;73.60;;;;;;4996621;28;20031;-65
2021/10/29 02:17:28;;;;;;;12.80;6.35;;;14.90;73.70;;;;;;5007648;28;20076;-66
2021/10/29 02:19:54;;;;;;;10.57;5.43;;;14.90;73.70;;;;;;5000320;28;20460;-66
2021/10/29 02:22:20;;;;;;;9.38;6.15;;;14.90;73.80;;;;;;5006353;28;20030;-65
2021/10/29 02:24:46;;;;;;;12.85;4.97;;;14.90;73.90;;;;;;5004303;28;20095;-65
2021/10/29 02:27:12;;;;;;;10.10;5.38;;;14.90;74.00;;;;;;5007738;28;20042;-66
2021/10/29 02:29:38;;;;;;;13.20;5.43;;;14.90;74.10;;;;;;5009324;28;20029;-66
2021/10/29 02:32:04;;;;;;;9.30;4.30;;;14.90;74.40;;;;;;5008995;28;20034;-65
2021/10/29 02:34:30;;;;;;;9.23;4.30;;;14.90;74.70;;;;;;5004309;28;20655;-65
2021/10/29 02:36:56;;;;;;;7.07;4.50;;;14.90;75.10;;;;;;5007000;28;20027;-65
2021/10/29 02:39:21;;;;;;;9.77;5.95;;;14.80;75.60;;;;;;5002331;28;20508;-65
2021/10/29 02:41:47;;;;;;;14.50;6.47;;;14.80;76.10;;;;;;5008644;28;20083;-65
2021/10/29 02:44:13;;;;;;;8.63;5.07;;;14.70;76.90;;;;;;5007260;28;20030;-66
2021/10/29 02:46:38;;;;;;;10.55;5.57;;;14.60;78.00;;;;;;5004920;28;20423;-65
2021/10/29 02:49:06;;;;;;;9.18;3.97;;;14.50;78.80;;;;;;5005123;28;20566;-65
2021/10/29 02:51:31;;;;;;;14.07;6.95;;;14.40;79.50;;;;;;5007610;28;20035;-65
2021/10/29 02:53:58;;;;;;;13.02;6.45;;;14.30;80.20;;;;;;5004771;28;20152;-65
2021/10/29 02:56:24;;;;;;;18.05;6.47;;;14.20;81.30;;;;;;5007435;28;20434;-66
2021/10/29 02:58:50;;;;;;;11.13;6.38;;;14.10;82.50;;;;;;5004537;28;20041;-66
2021/10/29 03:01:16;;;;;;;10.23;5.88;;;14.10;83.10;;;;;;5005692;28;20026;-65
2021/10/29 03:03:41;;;;;;;8.52;5.30;;;14.00;83.10;;;;;;5008117;28;20109;-65
2021/10/29 03:06:07;;;;;;;12.90;6.93;;;14.00;83.40;;;;;;5007278;28;20034;-65
2021/10/29 03:08:36;;;;;;;9.85;5.30;;;14.00;84.00;;;;;;5006156;28;20540;-65
2021/10/29 03:11:05;;;;;;;12.80;7.13;;;14.00;84.10;;;;;;4996263;28;20050;-65
2021/10/29 03:13:35;;;;;;;14.88;7.60;;;14.00;84.50;;;;;;4998261;28;20409;-66
2021/10/29 03:16:05;;;;;;;10.20;6.00;;;14.00;84.40;;;;;;5007323;28;20496;-66
2021/10/29 03:18:32;;;;;;;14.45;7.03;;;14.00;84.50;;;;;;4996823;28;20394;-65
2021/10/29 03:21:04;;;;;;;12.10;6.45;;;14.00;84.80;;;;;;5007692;28;20022;-66
2021/10/29 03:23:34;;;;;;;7.50;4.05;;;13.90;84.80;;;;;;5003975;28;20585;-65
2021/10/29 03:26:04;;;;;;;11.77;5.53;;;14.00;85.10;;;;;;5006839;28;20100;-65
2021/10/29 03:28:34;;;;;;;11.38;6.63;;;13.90;85.90;;;;;;5003726;28;20037;-65
2021/10/29 03:31:05;;;;;;;11.13;5.45;;;13.90;85.00;;;;;;4994649;28;20065;-65
2021/10/29 03:33:39;;;;;;;9.52;6.28;;;13.90;85.50;;;;;;4992361;28;20435;-65
2021/10/29 03:36:11;;;;;;;13.43;6.22;;;13.90;85.30;;;;;;5007429;28;20037;-65
2021/10/29 03:41:11;;;;;;;17.40;8.95;;;13.90;85.50;;;;;;5003110;28;20037;-66
2021/10/29 03:44:04;;;;;;;12.88;6.95;;;13.90;85.60;;;;;;5002667;28;20022;-65
2021/10/29 03:46:33;;;;;;;11.25;6.75;;;13.90;85.40;;;;;;5008467;28;20133;-65
2021/10/29 03:56:27;;;;;;;10.85;5.68;;;13.90;85.40;;;;;;5011276;28;20033;-65
2021/10/29 03:58:55;;;;;;;11.65;4.68;;;13.90;85.30;;;;;;5011080;28;20026;-66
2021/10/29 04:01:20;;;;;;;14.65;6.53;;;13.90;85.40;;;;;;5009073;28;20489;-65
2021/10/29 04:03:47;;;;;;;10.25;6.35;;;14.00;85.30;;;;;;4998286;28;20077;-66
2021/10/29 04:06:13;;;;;;;13.60;6.63;;;14.00;85.20;;;;;;5002117;28;20030;-65
2021/10/29 04:08:39;;;;;;;9.45;4.75;;;14.00;85.20;;;;;;5011822;28;20041;-66
2021/10/29 04:11:06;;;;;;;11.48;6.97;;;14.10;85.00;;;;;;5009597;28;20040;-66
2021/10/29 04:13:38;;;;;;;10.40;4.78;;;14.00;84.90;;;;;;5009635;28;20112;-65
2021/10/29 04:16:05;;;;;;;11.05;5.70;;;14.10;84.90;;;;;;5010053;28;20048;-65
2021/10/29 04:18:33;;;;;;;9.13;4.20;;;14.10;84.90;;;;;;5007241;28;20030;-66
2021/10/29 04:21:00;;;;;;;12.30;7.03;;;14.20;85.00;;;;;;5008266;28;20084;-65
2021/10/29 04:23:26;;;;;;;12.88;5.78;;;14.20;84.90;;;;;;5004827;28;20029;-65
2021/10/29 04:25:53;;;;;;;14.68;6.93;;;14.20;84.60;;;;;;5006315;28;20030;-65
2021/10/29 04:28:20;;;;;;;14.10;5.88;;;14.20;84.60;;;;;;5009450;28;20037;-66
2021/10/29 04:30:46;;;;;;;15.15;7.05;;;14.20;85.20;;;;;;5011262;28;20026;-65
2021/10/29 04:33:13;;;;;;;12.25;5.85;;;14.30;84.70;;;;;;5004510;28;20037;-66
2021/10/29 04:35:44;;;;;;;18.15;6.90;;;14.30;84.80;;;;;;5010225;28;20049;-65
2021/10/29 04:38:12;;;;;;;10.40;5.35;;;14.30;84.70;;;;;;5003258;28;20121;-65
2021/10/29 04:40:39;;;;;;;14.38;7.55;;;14.30;84.70;;;;;;5006872;28;20029;-66
2021/10/29 04:43:06;;;;;;;10.93;5.47;;;14.40;84.70;;;;;;5005527;28;20049;-65
2021/10/29 04:45:32;;;;;;;18.80;5.72;;;14.40;84.50;;;;;;5010058;28;20054;-65
2021/10/29 04:47:59;;;;;;;14.95;7.70;;;14.40;84.60;;;;;;5008155;28;20508;-65
2021/10/29 04:50:26;;;;;;;14.63;8.25;;;14.40;84.80;;;;;;4982922;28;20073;-66
2021/10/29 04:52:52;;;;;;;13.88;7.07;;;14.40;85.30;;;;;;4998272;28;20023;-66
2021/10/29 04:55:18;;;;;;;16.02;7.90;;;14.40;85.40;;;;;;5006898;28;20028;-66
2021/10/29 04:57:44;;;;;;;14.15;7.18;;;14.40;85.70;;;;;;5008513;28;20034;-66
2021/10/29 05:00:10;;;;;;;14.50;7.35;;;14.40;85.50;;;;;;5012604;28;20080;-66
2021/10/29 05:02:36;;;;;;;11.93;6.22;;;14.30;85.70;;;;;;5001931;28;20040;-65
2021/10/29 05:05:04;;;;;;;12.63;6.18;;;14.30;85.80;;;;;;4992471;28;20447;-66
2021/10/29 05:07:31;;;;;;;14.93;8.05;;;14.30;86.10;;;;;;5005281;28;20044;-66
2021/10/29 05:09:56;;;;;;;11.65;5.85;;;14.30;86.20;;;;;;5009685;28;20022;-66
2021/10/29 05:12:22;;;;;;;12.07;5.57;;;14.30;86.60;;;;;;4995822;28;20085;-66
2021/10/29 05:14:48;;;;;;;11.85;5.75;;;14.30;86.80;;;;;;5010383;28;20516;-65
2021/10/29 05:17:14;;;;;;;12.23;6.90;;;14.20;86.90;;;;;;5009719;28;20456;-65
2021/10/29 05:19:40;;;;;;;13.80;6.28;;;14.20;87.20;;;;;;5006017;28;20093;-65
2021/10/29 05:22:06;;;;;;;16.10;7.70;;;14.20;87.90;;;;;;5010302;28;20133;-65
2021/10/29 05:24:32;;;;;;;14.85;8.25;;;14.20;88.40;;;;;;5003761;28;20088;-66
2021/10/29 05:26:58;;;;;;;11.18;6.63;;;14.10;88.50;;;;;;5008700;28;20042;-65
2021/10/29 05:29:24;;;;;;;17.67;7.40;;;14.10;88.40;;;;;;5007991;28;20109;-65
2021/10/29 05:31:51;;;;;;;14.10;5.82;;;14.10;88.70;;;;;;5006212;28;20038;-66
2021/10/29 05:34:17;;;;;;;12.10;6.53;;;14.10;88.80;;;;;;5007513;28;20099;-66
2021/10/29 05:36:43;;;;;;;18.10;6.60;;;14.00;88.80;;;;;;5008424;28;20095;-65
2021/10/29 05:39:09;;;;;;;10.55;5.88;;;14.00;88.80;;;;;;5010266;28;20030;-66
2021/10/29 05:41:36;;;;;;;10.15;5.70;;;14.00;88.90;;;;;;5006515;28;20022;-67
2021/10/29 05:44:01;;;;;;;13.70;6.32;;;14.10;89.00;;;;;;5006831;28;20022;-67
2021/10/29 05:46:30;;;;;;;18.13;5.85;;;14.10;89.30;;;;;;5004493;28;20030;-67
2021/10/29 05:48:56;;;;;;;18.40;7.45;;;14.10;89.20;;;;;;5003088;28;20038;-67
2021/10/29 05:51:23;;;;;;;16.60;7.65;;;14.10;89.40;;;;;;5009901;28;20033;-67
2021/10/29 05:56:15;;;;;;;16.80;7.82;;;14.20;89.50;;;;;;5009095;28;20048;-67
2021/10/29 05:58:40;;;;;;;14.65;7.70;;;14.20;89.70;;;;;;5004848;28;20030;-67
2021/10/29 06:01:08;;;;;;;10.05;5.15;;;14.20;89.60;;;;;;5007292;28;20416;-68
2021/10/29 06:03:34;;;;;;;11.95;6.75;;;14.20;89.50;;;;;;5006001;28;20061;-67
2021/10/29 06:06:00;;;;;;;14.40;7.00;;;14.20;89.60;;;;;;5009338;28;20065;-67
2021/10/29 06:08:25;;;;;;;15.52;8.57;;;14.20;89.80;;;;;;5006655;28;20451;-67
2021/10/29 06:10:52;;;;;;;15.13;8.02;;;14.20;89.90;;;;;;5007384;28;20026;-67
2021/10/29 06:13:18;;;;;;;16.65;8.20;;;14.20;89.70;;;;;;5007777;28;20026;-67
2021/10/29 06:15:46;;;;;;;14.75;5.35;;;14.20;89.70;;;;;;5005796;28;20084;-66
2021/10/29 06:18:19;;;;;;;16.75;7.35;;;14.20;89.80;;;;;;5009070;28;20025;-67
2021/10/29 06:20:45;;;;;;;16.98;7.65;;;14.30;89.80;;;;;;5005983;28;20022;-67
2021/10/29 06:23:11;;;;;;;16.95;7.90;;;14.30;89.90;;;;;;5005581;28;20030;-67
2021/10/29 06:25:45;;;;;;;20.55;7.70;;;14.30;89.80;;;;;;5002860;28;20072;-66
2021/10/29 06:30:40;;;;;;;12.43;6.47;;;14.30;89.70;;;;;;4999470;28;20033;-66
2021/10/29 06:33:10;;;;;;;13.52;6.90;;;14.30;89.60;;;;;;5011134;28;20385;-66
2021/10/29 06:35:36;;;;;;;13.30;6.15;;;14.40;89.50;;;;;;5008561;28;20038;-66
2021/10/29 06:38:02;;;;;;;12.23;5.95;;;14.30;89.40;;;;;;5006508;28;20101;-66
2021/10/29 06:40:31;;;;;;;10.77;6.03;;;14.40;89.10;;;;;;5004657;28;20057;-65
2021/10/29 06:43:01;;;;;;;16.38;7.30;;;14.30;89.10;;;;;;5009397;28;20037;-66
2021/10/29 07:01:45;;;;;;;13.73;4.85;;;14.10;89.80;;;;;;5000217;28;20028;-65
2021/10/29 07:42:07;;;;;;;14.13;4.43;;;15.10;85.70;;;;;;5009663;28;20088;-66
2021/10/29 07:44:37;;;;;;;14.02;4.03;;;15.10;85.70;;;;;;5004416;28;20096;-66
2021/10/29 07:47:03;;;;;;;11.80;4.05;;;15.10;85.60;;;;;;5007018;28;20897;-66
2021/10/29 07:49:29;;;;;;;15.95;4.38;;;15.00;85.70;;;;;;5005470;28;20029;-66
2021/10/29 07:51:56;;;;;;;12.55;4.03;;;15.10;85.40;;;;;;5000414;28;20040;-66
2021/10/29 07:54:23;;;;;;;13.60;3.92;;;15.30;85.10;;;;;;5004296;28;20026;-66
2021/10/29 07:56:50;;;;;;;15.07;3.85;;;15.70;83.90;;;;;;5006902;28;20452;-66
2021/10/29 07:59:17;;;;;;;9.10;3.05;;;16.10;81.80;;;;;;5003530;28;20068;-66
2021/10/29 08:01:42;;;;;;;10.48;2.60;;;16.40;80.00;;;;;;5004662;28;20046;-66
2021/10/29 08:04:08;;;;;;;13.88;3.50;;;16.30;79.40;;;;;;5006488;28;20053;-66
2021/10/29 08:06:34;;;;;;;14.48;3.22;;;16.30;79.20;;;;;;5005985;28;20121;-66
2021/10/29 08:09:01;;;;;;;12.13;2.95;;;16.40;79.20;;;;;;5001217;28;20068;-66
2021/10/29 08:11:28;;;;;;;9.68;2.00;;;16.40;78.50;;;;;;5004895;28;20014;-68
2021/10/29 08:13:54;;;;;;;11.43;2.38;;;16.60;77.50;;;;;;5008277;28;20042;-67
2021/10/29 08:16:20;;;;;;;12.70;2.47;;;16.70;77.10;;;;;;5009635;28;20018;-67
2021/10/29 08:18:48;;;;;;;11.48;2.20;;;16.50;77.70;;;;;;5003214;28;20077;-67
2021/10/29 08:21:14;;;;;;;15.02;2.72;;;16.30;78.40;;;;;;5003899;28;20459;-67
2021/10/29 08:23:41;;;;;;;10.05;2.20;;;16.20;78.60;;;;;;5008179;28;20018;-67
2021/10/29 08:26:11;;;;;;;12.55;2.30;;;16.20;78.90;;;;;;4994673;28;20026;-67
2021/10/29 08:28:39;;;;;;;12.05;2.20;;;16.90;78.40;;;;;;5009713;28;20096;-67
2021/10/29 08:31:05;;;;;;;13.55;2.50;;;17.10;76.00;;;;;;5005160;28;20420;-67
2021/10/29 08:33:31;;;;;;;12.30;2.65;;;17.30;75.50;;;;;;4981384;28;20061;-67
2021/10/29 08:35:57;;;;;;;12.00;2.88;;;17.70;73.80;;;;;;4998880;28;20026;-67
2021/10/29 08:38:24;;;;;;;14.57;2.28;;;17.50;73.90;;;;;;4995888;28;20054;-67
2021/10/29 08:40:50;;;;;;;13.32;2.10;;;17.50;73.50;;;;;;4996485;28;20033;-67
2021/10/29 08:43:17;;;;;;;14.25;2.13;;;17.40;74.40;;;;;;5006138;28;20029;-67
2021/10/29 08:45:43;;;;;;;15.20;2.20;;;17.40;72.80;;;;;;5001035;28;20022;-67
2021/10/29 08:48:09;;;;;;;17.67;2.40;;;17.20;72.90;;;;;;5002255;28;20416;-67
2021/10/29 08:50:35;;;;;;;13.32;2.00;;;17.20;72.90;;;;;;5008726;28;20022;-67
2021/10/29 08:53:02;;;;;;;13.50;1.95;;;17.30;73.70;;;;;;5010305;28;20448;-66
2021/10/29 08:55:29;;;;;;;12.77;2.40;;;18.00;71.80;;;;;;5011726;28;20136;-65
2021/10/29 08:57:55;;;;;;;14.73;2.15;;;19.70;66.50;;;;;;5007194;28;20650;-66
2021/10/29 09:00:25;;;;;;;18.58;2.45;;;19.60;65.30;;;;;;5008419;28;20022;-66
2021/10/29 09:03:14;;;;;;;15.93;2.20;;;19.20;65.00;;;;;;5007616;28;20025;-66
2021/10/29 09:08:20;;;;;;;12.30;2.15;;;18.50;66.00;;;;;;5008122;28;20054;-66
2021/10/29 09:33:52;;;;;;;15.23;2.08;;;19.80;62.80;;;;;;5001407;28;19929;-66
2021/10/29 09:36:35;;;;;;;15.82;2.10;;;19.50;63.50;;;;;;5007937;28;20064;-66
2021/10/29 09:39:09;;;;;;;13.32;1.88;;;19.20;64.80;;;;;;5010526;28;20112;-66
2021/10/29 09:41:38;;;;;;;15.88;1.98;;;18.90;65.70;;;;;;4997650;28;20523;-66
2021/10/29 09:44:12;;;;;;;14.00;1.85;;;18.70;66.00;;;;;;5007115;28;20053;-66
2021/10/29 09:46:58;;;;;;;10.82;1.83;;;18.40;65.50;;;;;;5011478;28;20030;-66
2021/10/29 09:49:30;;;;;;;15.13;2.10;;;18.40;66.10;;;;;;4996796;28;20520;-66
2021/10/29 09:54:45;;;;;;;13.27;1.70;;;18.30;66.50;;;;;;5001166;28;20034;-66
2021/10/29 09:57:11;;;;;;;9.23;1.60;;;18.30;66.00;;;;;;4998127;28;20401;-66
2021/10/29 09:59:38;;;;;;;11.98;1.88;;;18.40;66.30;;;;;;5008356;28;20496;-66
2021/10/29 10:02:05;;;;;;;11.88;1.60;;;18.80;66.30;;;;;;4992987;28;20037;-66
2021/10/29 10:04:31;;;;;;;12.98;1.67;;;19.10;64.10;;;;;;4996902;28;20089;-66
2021/10/29 10:06:59;;;;;;;9.25;1.30;;;19.40;62.50;;;;;;5004059;28;20030;-66
2021/10/29 10:09:26;;;;;;;8.35;1.27;;;19.80;60.90;;;;;;5005231;28;20409;-66
2021/10/29 10:11:52;;;;;;;12.55;1.67;;;20.10;60.00;;;;;;5006688;28;20095;-66
2021/10/29 10:14:20;;;;;;;10.93;1.50;;;20.30;59.20;;;;;;4994217;28;20041;-66
2021/10/29 10:16:47;;;;;;;6.65;1.48;;;20.50;59.40;;;;;;4995267;28;20477;-67
2021/10/29 10:19:14;;;;;;;12.18;1.55;;;20.50;59.30;;;;;;5006123;28;20116;-67
2021/10/29 10:21:42;;;;;;;10.10;1.25;;;20.60;57.30;;;;;;4999688;28;20018;-67
2021/10/29 10:24:14;;;;;;;12.02;1.90;;;20.60;58.00;;;;;;4996739;28;20034;-67
2021/10/29 10:46:24;;;;;;;7.72;1.42;;;26.20;43.30;;;;;;4931355;29;20174;-67
2021/10/29 10:54:21;;;;;;;7.28;1.52;;;25.70;41.90;;;;;;4922931;29;20545;-67
2021/10/29 10:59:44;;;;;;;9.80;1.20;;;25.20;42.40;;;;;;4928041;29;20024;-67
2021/10/29 11:05:10;;;;;;;5.63;1.38;;;26.40;41.50;;;;;;4927801;29;20543;-68
2021/10/29 11:10:16;;;;;;;7.40;1.35;;;30.90;36.40;;;;;;4968780;28;20034;-68
2021/10/29 11:12:43;;;;;;;5.97;1.40;;;34.10;31.40;;;;;;4965222;28;20031;-68
2021/10/29 11:15:17;;;;;;;5.85;1.20;;;35.90;29.10;;;;;;4964803;28;20023;-68
2021/10/29 11:17:54;;;;;;;7.93;1.33;;;37.30;26.70;;;;;;4965758;28;20406;-68
2021/10/29 11:23:26;;;;;;;7.07;1.10;;;35.40;26.50;;;;;;5007445;28;20121;-67
2021/10/29 11:25:55;;;;;;;5.93;1.33;;;33.00;28.10;;;;;;5006250;28;20025;-67
2021/10/29 11:28:26;;;;;;;6.15;1.20;;;31.50;29.50;;;;;;5004360;28;20049;-67
2021/10/29 11:30:56;;;;;;;7.28;1.50;;;30.20;30.60;;;;;;5007186;28;20500;-68
2021/10/29 11:33:22;;;;;;;8.05;1.20;;;30.80;30.50;;;;;;5007776;28;20109;-68
2021/10/29 11:36:05;;;;;;;8.02;1.30;;;30.90;29.10;;;;;;5003094;28;20668;-68
2021/10/29 11:38:33;;;;;;;8.35;1.20;;;33.80;28.60;;;;;;5005757;28;20413;-68
2021/10/29 11:41:01;;;;;;;6.35;1.23;;;36.40;26.30;;;;;;5007120;28;20065;-69
2021/10/29 11:43:30;;;;;;;6.00;1.27;;;37.90;25.00;;;;;;5008729;28;20026;-69
2021/10/29 11:45:57;;;;;;;6.35;1.20;;;38.70;24.00;;;;;;4997013;28;20035;-68
2021/10/29 11:48:24;;;;;;;8.20;1.52;;;39.90;22.70;;;;;;4995172;28;20370;-69
2021/10/29 11:51:08;;;;;;;6.50;1.25;;;41.00;21.60;;;;;;4995923;28;20041;-67
2021/10/29 11:53:44;;;;;;;6.90;1.48;;;39.90;21.60;;;;;;4994304;28;20026;-66
2021/10/29 11:56:23;;;;;;;6.28;1.20;;;39.10;22.20;;;;;;4991021;28;20509;-66
2021/10/29 11:59:21;;;;;;;8.77;1.43;;;38.00;22.80;;;;;;5009194;28;20056;-66
2021/10/29 12:07:21;;;;;;;7.22;1.30;;;34.40;25.00;;;;;;5007658;28;20041;-68
2021/10/29 12:09:53;;;;;;;5.80;1.20;;;34.70;25.40;;;;;;5007085;28;20029;-68
2021/10/29 12:12:21;;;;;;;6.40;1.00;;;32.60;26.20;;;;;;5007240;28;20053;-68
2021/10/29 12:14:50;;;;;;;7.32;1.20;;;31.50;28.00;;;;;;5006688;28;20045;-68
2021/10/29 12:17:27;;;;;;;6.53;1.02;;;30.60;28.40;;;;;;5010489;28;20026;-68
2021/10/29 12:19:58;;;;;;;7.00;1.20;;;30.40;28.80;;;;;;4996273;28;20034;-68
2021/10/29 12:22:36;;;;;;;6.68;1.38;;;30.00;29.10;;;;;;5010817;28;20037;-68
2021/10/29 12:25:31;;;;;;;5.95;1.20;;;29.60;29.50;;;;;;4998866;28;20034;-68
2021/10/29 13:03:46;;;;;;;7.20;1.20;;;39.80;19.10;;;;;;4996099;28;20420;-66
2021/10/29 13:06:17;;;;;;;6.88;1.30;;;38.00;20.20;;;;;;4989320;28;20080;-67
2021/10/29 13:08:48;;;;;;;7.38;1.30;;;36.90;21.10;;;;;;4989251;28;20030;-68
2021/10/29 13:11:15;;;;;;;9.40;1.20;;;34.10;22.90;;;;;;4973417;28;20090;-68
2021/10/29 13:13:45;;;;;;;7.53;1.20;;;32.80;24.20;;;;;;4989974;28;20104;-68
2021/10/29 13:16:14;;;;;;;7.45;1.10;;;31.70;25.10;;;;;;4988912;28;20038;-68
2021/10/29 13:50:26;;;;;;;6.30;1.15;;;32.50;27.10;;;;;;4894225;29;20581;-68
2021/10/29 14:29:10;;;;;;;7.43;1.20;;;35.70;19.70;;;;;;5007894;28;20126;-67
2021/10/29 14:31:47;;;;;;;5.75;1.00;;;35.40;19.70;;;;;;4997181;28;20030;-67
2021/10/29 14:34:17;;;;;;;6.60;1.00;;;34.80;20.40;;;;;;5005849;28;20521;-67
2021/10/29 14:37:33;;;;;;;5.50;1.10;;;34.70;21.00;;;;;;4998703;28;20022;-67
2021/10/29 14:39:35;;;;;;;6.20;1.20;;;33.80;21.70;;;;;;4996152;28;20057;-67
2021/10/29 14:42:11;;;;;;;6.55;1.10;;;34.00;22.20;;;;;;5004313;28;20030;-67
2021/10/29 14:47:29;;;;;;;5.85;1.30;;;33.40;22.00;;;;;;5008239;28;20069;-68
2021/10/29 15:17:27;;;;;;;6.88;1.20;;;27.30;28.10;;;;;;5001410;28;20033;-68
2021/10/29 15:25:47;;;;;;;6.85;1.25;;;25.00;30.90;;;;;;4940526;28;20115;-67
2021/10/29 15:28:43;;;;;;;8.65;1.13;;;24.30;32.60;;;;;;4934725;29;20502;-67
2021/10/29 15:44:43;;;;;;;7.15;1.38;;;21.90;37.30;;;;;;4911944;29;20575;-67
2021/10/29 15:47:11;;;;;;;5.88;1.10;;;21.60;37.80;;;;;;4903547;29;20111;-68
2021/10/29 15:49:39;;;;;;;7.50;1.20;;;21.40;38.20;;;;;;4903883;29;20037;-68
2021/10/29 15:52:13;;;;;;;8.20;1.17;;;21.20;38.50;;;;;;4908996;29;20043;-68
2021/10/29 15:54:43;;;;;;;7.22;1.25;;;21.00;39.00;;;;;;4909662;29;20099;-68
2021/10/29 15:57:10;;;;;;;11.38;1.42;;;20.80;39.20;;;;;;4883843;29;20041;-67
2021/10/29 16:18:31;;;;;;;7.35;1.17;;;20.10;41.20;;;;;;5000166;28;20032;-67
2021/10/29 16:20:56;;;;;;;7.75;1.20;;;19.80;42.20;;;;;;5004421;28;20046;-67
2021/10/29 16:23:27;;;;;;;8.35;1.58;;;19.60;42.80;;;;;;4990764;28;20033;-67
2021/10/29 16:25:57;;;;;;;9.63;1.67;;;19.50;43.50;;;;;;5007460;28;20488;-67
2021/10/29 16:28:28;;;;;;;6.18;1.38;;;19.30;44.30;;;;;;5006947;28;20061;-67
2021/10/29 16:30:54;;;;;;;10.80;1.58;;;19.10;44.80;;;;;;5001265;28;20033;-67
2021/10/29 16:35:45;;;;;;;8.55;1.13;;;18.90;45.80;;;;;;5000646;28;20126;-67
2021/10/29 16:38:11;;;;;;;10.80;1.40;;;18.70;46.20;;;;;;5007261;28;20030;-68
2021/10/29 16:40:38;;;;;;;10.63;1.60;;;18.60;46.20;;;;;;5009369;28;20507;-67
2021/10/29 16:43:05;;;;;;;8.80;1.80;;;18.50;46.50;;;;;;5001198;28;20496;-68
2021/10/29 16:45:32;;;;;;;9.93;1.75;;;18.40;46.90;;;;;;5005201;28;20064;-67
2021/10/29 16:47:58;;;;;;;8.45;1.52;;;18.30;47.20;;;;;;5006406;28;20033;-67
2021/10/29 16:50:23;;;;;;;9.73;1.60;;;18.20;47.30;;;;;;4993903;28;20133;-67
2021/10/29 16:52:51;;;;;;;12.38;1.77;;;18.10;47.50;;;;;;5010942;28;20044;-67
2021/10/29 16:55:17;;;;;;;8.65;1.65;;;18.00;47.70;;;;;;4999412;28;20477;-67
2021/10/29 16:57:43;;;;;;;9.60;1.75;;;17.90;47.90;;;;;;5008061;28;20112;-67
2021/10/29 17:00:11;;;;;;;11.23;1.75;;;17.80;48.30;;;;;;5005514;28;20113;-68
2021/10/29 17:02:38;;;;;;;13.32;1.77;;;17.70;48.50;;;;;;5004915;28;20029;-75
2021/10/29 17:05:05;;;;;;;10.75;1.73;;;17.60;49.50;;;;;;5008607;28;20049;-67
2021/10/29 17:07:31;;;;;;;11.02;1.58;;;17.50;49.20;;;;;;5010098;28;20042;-67
2021/10/29 17:10:05;;;;;;;11.15;1.80;;;17.50;49.40;;;;;;5005337;28;20036;-67
2021/10/29 17:12:31;;;;;;;9.15;1.95;;;17.30;49.60;;;;;;4993575;28;20137;-67
2021/10/29 17:14:57;;;;;;;9.13;1.65;;;17.20;49.70;;;;;;4991873;28;20109;-67
2021/10/29 17:17:23;;;;;;;6.82;1.58;;;17.10;49.90;;;;;;5007420;28;20070;-67
2021/10/29 17:19:49;;;;;;;11.90;1.60;;;17.10;50.10;;;;;;5009439;28;20116;-67
2021/10/29 17:22:15;;;;;;;10.63;1.90;;;17.00;50.40;;;;;;5006651;28;20036;-67
2021/10/29 17:24:40;;;;;;;11.15;2.20;;;16.90;51.00;;;;;;5003061;28;20033;-67
2021/10/29 17:27:06;;;;;;;13.43;3.20;;;16.80;50.90;;;;;;5008787;28;20488;-67
2021/10/29 17:29:33;;;;;;;12.68;1.95;;;16.80;51.10;;;;;;5007827;28;20060;-67
2021/10/29 17:32:00;;;;;;;13.68;2.40;;;16.70;51.20;;;;;;5007934;28;20519;-67
2021/10/29 17:34:26;;;;;;;14.07;2.90;;;16.70;51.30;;;;;;5009343;28;20136;-66
2021/10/29 17:36:52;;;;;;;13.88;3.40;;;16.60;51.50;;;;;;4999411;28;20105;-66
2021/10/29 17:39:20;;;;;;;12.57;4.07;;;16.60;51.70;;;;;;5000992;28;20088;-66
2021/10/29 17:41:47;;;;;;;15.32;4.03;;;16.50;52.00;;;;;;5000137;28;20026;-67
2021/10/29 17:44:15;;;;;;;17.58;5.60;;;16.50;52.20;;;;;;5003120;28;20026;-66
2021/10/29 17:46:41;;;;;;;21.40;8.45;;;16.30;52.40;;;;;;5006982;28;20054;-67
2021/10/29 17:49:09;;;;;;;20.27;10.30;;;16.20;52.60;;;;;;5007588;28;20092;-67
2021/10/29 17:51:36;;;;;;;25.00;13.25;;;16.10;52.90;;;;;;5006805;28;20036;-67
2021/10/29 17:54:03;;;;;;;36.15;20.02;;;16.00;53.10;;;;;;5000385;28;20385;-67
2021/10/29 17:56:29;;;;;;;37.25;20.17;;;15.90;53.50;;;;;;5005005;28;20065;-68
2021/10/29 17:58:55;;;;;;;37.58;21.30;;;15.80;53.80;;;;;;5002108;28;20412;-68
2021/10/29 18:01:23;;;;;;;36.75;20.35;;;15.70;54.20;;;;;;4994664;28;20249;-68